createdAt,value
2017-09-07T00:00:18.691Z,0
2017-09-07T00:01:19.048Z,0
2017-09-07T00:02:18.721Z,0
2017-09-07T00:03:18.720Z,0
2017-09-07T00:04:18.706Z,0
2017-09-07T00:05:18.726Z,0
2017-09-07T00:06:18.733Z,0
2017-09-07T00:07:18.973Z,0
2017-09-07T00:08:19.105Z,0
2017-09-07T00:09:19.446Z,0
2017-09-07T00:10:18.654Z,0
2017-09-07T00:11:19.466Z,0
2017-09-07T00:12:18.852Z,0
2017-09-07T00:13:19.190Z,0
2017-09-07T00:14:18.645Z,0
2017-09-07T00:15:18.911Z,0
2017-09-07T00:16:19.570Z,0
2017-09-07T00:17:19.263Z,0
2017-09-07T00:18:19.290Z,0
2017-09-07T00:19:19.630Z,0
2017-09-07T00:20:19.012Z,0
2017-09-07T00:21:19.020Z,0
2017-09-07T00:22:19.376Z,0
2017-09-07T00:23:19.077Z,0
2017-09-07T00:24:18.769Z,0
2017-09-07T00:25:19.436Z,0
2017-09-07T00:26:19.451Z,0
2017-09-07T00:27:19.156Z,0
2017-09-07T00:28:19.487Z,0
2017-09-07T00:29:19.186Z,0
2017-09-07T00:30:19.537Z,0
2017-09-07T00:31:19.889Z,0
2017-09-07T00:32:19.578Z,0
2017-09-07T00:33:19.268Z,0
2017-09-07T00:34:19.288Z,0
2017-09-07T00:35:19.626Z,0
2017-09-07T00:36:19.973Z,0
2017-09-07T00:37:19.994Z,0
2017-09-07T00:38:19.705Z,0
2017-09-07T00:39:19.089Z,0
2017-09-07T00:40:19.413Z,0
2017-09-07T00:41:19.450Z,0
2017-09-07T00:42:19.771Z,0
2017-09-07T00:43:20.120Z,0
2017-09-07T00:44:19.492Z,0
2017-09-07T00:45:19.510Z,0
2017-09-07T00:46:19.529Z,0
2017-09-07T00:47:19.556Z,0
2017-09-07T00:48:19.567Z,0
2017-09-07T00:49:19.923Z,0
2017-09-07T00:50:19.613Z,0
2017-09-07T00:51:19.963Z,0
2017-09-07T00:52:20.332Z,0
2017-09-07T00:53:19.034Z,0
2017-09-07T00:54:20.019Z,0
2017-09-07T00:55:19.395Z,0
2017-09-07T00:56:20.064Z,0
2017-09-07T00:57:20.076Z,0
2017-09-07T00:58:20.100Z,0
2017-09-07T00:59:19.792Z,0
2017-09-07T01:00:19.827Z,0
2017-09-07T01:01:19.517Z,0
2017-09-07T01:02:19.859Z,0
2017-09-07T01:03:19.559Z,0
2017-09-07T01:04:20.165Z,0
2017-09-07T01:05:20.564Z,0
2017-09-07T01:06:20.261Z,0
2017-09-07T01:07:19.635Z,0
2017-09-07T01:08:19.974Z,0
2017-09-07T01:09:20.758Z,0
2017-09-07T01:10:20.107Z,0
2017-09-07T01:11:20.310Z,0
2017-09-07T01:12:20.061Z,0
2017-09-07T01:13:20.123Z,0
2017-09-07T01:14:20.424Z,0
2017-09-07T01:15:19.792Z,0
2017-09-07T01:16:19.823Z,0
2017-09-07T01:17:20.150Z,0
2017-09-07T01:18:19.861Z,0
2017-09-07T01:19:20.651Z,0
2017-09-07T01:20:20.989Z,0
2017-09-07T01:21:20.797Z,0
2017-09-07T01:22:20.682Z,0
2017-09-07T01:23:20.072Z,0
2017-09-07T01:24:20.296Z,0
2017-09-07T01:25:20.745Z,0
2017-09-07T01:26:20.011Z,0
2017-09-07T01:27:21.200Z,0
2017-09-07T01:28:20.097Z,0
2017-09-07T01:29:19.759Z,0
2017-09-07T01:30:21.195Z,0
2017-09-07T01:31:20.888Z,0
2017-09-07T01:32:20.137Z,0
2017-09-07T01:33:20.259Z,0
2017-09-07T01:34:21.055Z,0
2017-09-07T01:35:20.634Z,0
2017-09-07T01:36:21.016Z,0
2017-09-07T01:37:20.705Z,0
2017-09-07T01:38:20.670Z,0
2017-09-07T01:39:21.349Z,0
2017-09-07T01:40:20.785Z,0
2017-09-07T01:41:20.780Z,0
2017-09-07T01:42:20.469Z,0
2017-09-07T01:43:52.753Z,0
2017-09-07T01:44:20.422Z,0
2017-09-07T01:45:20.747Z,0
2017-09-07T01:46:21.060Z,0
2017-09-07T01:47:21.400Z,0
2017-09-07T01:48:21.420Z,0
2017-09-07T01:49:20.665Z,0
2017-09-07T01:50:20.827Z,0
2017-09-07T01:51:20.926Z,0
2017-09-07T01:52:20.930Z,0
2017-09-07T01:53:21.202Z,0
2017-09-07T01:54:20.967Z,0
2017-09-07T01:55:21.588Z,0
2017-09-07T01:56:21.260Z,0
2017-09-07T01:57:20.980Z,0
2017-09-07T01:58:21.336Z,0
2017-09-07T01:59:21.318Z,0
2017-09-07T02:00:21.014Z,0
2017-09-07T02:01:21.104Z,0
2017-09-07T02:02:21.384Z,0
2017-09-07T02:03:21.655Z,0
2017-09-07T02:04:20.783Z,0
2017-09-07T02:05:21.437Z,0
2017-09-07T02:06:21.137Z,0
2017-09-07T02:07:21.156Z,0
2017-09-07T02:08:21.176Z,0
2017-09-07T02:09:21.203Z,0
2017-09-07T02:10:21.228Z,0
2017-09-07T02:11:20.921Z,0
2017-09-07T02:12:21.598Z,0
2017-09-07T02:13:21.285Z,0
2017-09-07T02:14:21.625Z,0
2017-09-07T02:15:21.642Z,0
2017-09-07T02:16:21.669Z,0
2017-09-07T02:17:21.361Z,0
2017-09-07T02:18:22.022Z,0
2017-09-07T02:19:20.867Z,0
2017-09-07T02:20:21.419Z,0
2017-09-07T02:21:21.115Z,0
2017-09-07T02:22:21.141Z,0
2017-09-07T02:23:21.800Z,0
2017-09-07T02:24:21.824Z,0
2017-09-07T02:25:21.513Z,0
2017-09-07T02:26:20.902Z,0
2017-09-07T02:27:21.873Z,0
2017-09-07T02:28:21.904Z,0
2017-09-07T02:29:22.243Z,0
2017-09-07T02:30:22.271Z,0
2017-09-07T02:31:22.289Z,0
2017-09-07T02:32:22.303Z,0
2017-09-07T02:33:21.687Z,0
2017-09-07T02:34:21.377Z,0
2017-09-07T02:35:21.758Z,0
2017-09-07T02:36:22.057Z,0
2017-09-07T02:37:22.089Z,0
2017-09-07T02:38:22.099Z,0
2017-09-07T02:39:22.440Z,0
2017-09-07T02:40:22.155Z,0
2017-09-07T02:41:22.480Z,0
2017-09-07T02:42:21.861Z,0
2017-09-07T02:43:21.878Z,0
2017-09-07T02:44:22.216Z,0
2017-09-07T02:45:21.923Z,0
2017-09-07T02:46:22.254Z,0
2017-09-07T02:47:22.282Z,0
2017-09-07T02:48:22.297Z,0
2017-09-07T02:49:22.317Z,0
2017-09-07T02:50:22.011Z,0
2017-09-07T02:51:22.371Z,0
2017-09-07T02:52:22.386Z,0
2017-09-07T02:53:22.402Z,0
2017-09-07T02:54:22.092Z,0
2017-09-07T02:55:22.125Z,0
2017-09-07T02:56:22.138Z,0
2017-09-07T02:57:22.161Z,0
2017-09-07T02:58:22.173Z,0
2017-09-07T02:59:22.527Z,0
2017-09-07T03:00:22.535Z,0
2017-09-07T03:01:22.550Z,0
2017-09-07T03:02:21.615Z,0
2017-09-07T03:03:22.012Z,0
2017-09-07T03:04:22.297Z,0
2017-09-07T03:05:22.637Z,0
2017-09-07T03:06:22.645Z,0
2017-09-07T03:07:22.033Z,0
2017-09-07T03:08:22.410Z,0
2017-09-07T03:09:22.745Z,0
2017-09-07T03:10:22.414Z,0
2017-09-07T03:11:22.439Z,0
2017-09-07T03:12:22.255Z,0
2017-09-07T03:13:22.151Z,0
2017-09-07T03:14:22.572Z,0
2017-09-07T03:15:22.513Z,0
2017-09-07T03:16:22.334Z,0
2017-09-07T03:17:22.679Z,0
2017-09-07T03:18:22.665Z,0
2017-09-07T03:19:22.686Z,0
2017-09-07T03:20:22.816Z,0
2017-09-07T03:21:22.842Z,0
2017-09-07T03:22:22.849Z,0
2017-09-07T03:23:22.844Z,0
2017-09-07T03:24:22.845Z,0
2017-09-07T03:25:22.663Z,0
2017-09-07T03:26:22.853Z,0
2017-09-07T03:27:23.178Z,0
2017-09-07T03:28:23.006Z,0
2017-09-07T03:29:22.988Z,0
2017-09-07T03:30:23.311Z,0
2017-09-07T03:31:23.312Z,0
2017-09-07T03:32:23.756Z,0
2017-09-07T03:33:23.314Z,0
2017-09-07T03:34:22.672Z,0
2017-09-07T03:35:23.033Z,0
2017-09-07T03:36:23.347Z,0
2017-09-07T03:37:23.471Z,0
2017-09-07T03:38:23.034Z,0
2017-09-07T03:39:23.496Z,0
2017-09-07T03:40:23.062Z,0
2017-09-07T03:41:23.467Z,0
2017-09-07T03:42:23.663Z,0
2017-09-07T03:43:23.938Z,0
2017-09-07T03:44:23.503Z,0
2017-09-07T03:45:23.798Z,0
2017-09-07T03:46:24.033Z,0
2017-09-07T03:47:23.943Z,0
2017-09-07T03:48:23.513Z,0
2017-09-07T03:49:23.546Z,0
2017-09-07T03:50:23.603Z,0
2017-09-07T03:51:22.902Z,0
2017-09-07T03:52:23.688Z,0
2017-09-07T03:53:23.259Z,0
2017-09-07T03:54:23.288Z,0
2017-09-07T03:55:23.952Z,0
2017-09-07T03:56:23.347Z,0
2017-09-07T03:57:23.346Z,0
2017-09-07T03:58:23.477Z,0
2017-09-07T03:59:23.775Z,0
2017-09-07T04:00:23.811Z,0
2017-09-07T04:01:22.779Z,0
2017-09-07T04:02:23.130Z,0
2017-09-07T04:03:23.809Z,0
2017-09-07T04:04:23.507Z,0
2017-09-07T04:05:23.823Z,0
2017-09-07T04:06:23.519Z,0
2017-09-07T04:07:23.887Z,0
2017-09-07T04:08:23.242Z,0
2017-09-07T04:09:23.257Z,0
2017-09-07T04:10:23.669Z,0
2017-09-07T04:11:23.669Z,0
2017-09-07T04:12:24.274Z,0
2017-09-07T04:13:23.977Z,0
2017-09-07T04:14:23.360Z,0
2017-09-07T04:15:23.765Z,0
2017-09-07T04:16:24.367Z,0
2017-09-07T04:17:23.760Z,0
2017-09-07T04:18:23.760Z,0
2017-09-07T04:19:23.778Z,0
2017-09-07T04:20:23.152Z,0
2017-09-07T04:21:23.818Z,0
2017-09-07T04:22:24.163Z,0
2017-09-07T04:23:23.862Z,0
2017-09-07T04:24:24.723Z,0
2017-09-07T04:25:23.911Z,0
2017-09-07T04:26:24.246Z,0
2017-09-07T04:27:24.580Z,0
2017-09-07T04:28:23.630Z,0
2017-09-07T04:29:23.657Z,0
2017-09-07T04:30:24.001Z,0
2017-09-07T04:31:23.693Z,0
2017-09-07T04:32:24.038Z,0
2017-09-07T04:33:23.766Z,0
2017-09-07T04:34:23.751Z,0
2017-09-07T04:35:24.417Z,0
2017-09-07T04:36:24.135Z,0
2017-09-07T04:37:24.499Z,0
2017-09-07T04:38:23.510Z,0
2017-09-07T04:39:24.174Z,0
2017-09-07T04:40:24.202Z,0
2017-09-07T04:41:23.891Z,0
2017-09-07T04:42:23.917Z,0
2017-09-07T04:43:23.935Z,0
2017-09-07T04:44:24.591Z,0
2017-09-07T04:45:24.664Z,0
2017-09-07T04:46:24.418Z,0
2017-09-07T04:47:24.968Z,0
2017-09-07T04:48:24.350Z,0
2017-09-07T04:49:24.476Z,0
2017-09-07T04:50:25.024Z,0
2017-09-07T04:51:24.091Z,0
2017-09-07T04:52:24.799Z,0
2017-09-07T04:53:24.221Z,0
2017-09-07T04:54:24.564Z,0
2017-09-07T04:55:25.227Z,0
2017-09-07T04:56:24.607Z,0
2017-09-07T04:57:24.947Z,0
2017-09-07T04:58:25.103Z,0
2017-09-07T04:59:24.988Z,0
2017-09-07T05:00:24.786Z,0
2017-09-07T05:01:25.109Z,0
2017-09-07T05:02:25.117Z,0
2017-09-07T05:03:24.549Z,0
2017-09-07T05:04:25.496Z,0
2017-09-07T05:05:25.056Z,0
2017-09-07T05:06:25.408Z,0
2017-09-07T05:07:24.826Z,0
2017-09-07T05:08:24.509Z,0
2017-09-07T05:09:24.512Z,0
2017-09-07T05:10:24.937Z,0
2017-09-07T05:11:25.235Z,0
2017-09-07T05:12:24.571Z,0
2017-09-07T05:13:25.597Z,0
2017-09-07T05:14:24.889Z,0
2017-09-07T05:15:24.999Z,0
2017-09-07T05:16:24.583Z,0
2017-09-07T05:17:24.936Z,0
2017-09-07T05:18:25.412Z,0
2017-09-07T05:19:24.756Z,0
2017-09-07T05:20:24.983Z,0
2017-09-07T05:21:25.436Z,5
2017-09-07T05:22:25.024Z,5
2017-09-07T05:23:25.443Z,5
2017-09-07T05:24:25.742Z,5
2017-09-07T05:25:25.571Z,5
2017-09-07T05:26:24.871Z,5
2017-09-07T05:27:25.131Z,0
2017-09-07T05:28:24.545Z,0
2017-09-07T05:29:25.182Z,5
2017-09-07T05:30:25.177Z,5
2017-09-07T05:31:25.445Z,5
2017-09-07T05:32:25.239Z,5
2017-09-07T05:33:25.601Z,5
2017-09-07T05:34:25.413Z,5
2017-09-07T05:35:25.110Z,5
2017-09-07T05:36:25.827Z,5
2017-09-07T05:37:25.720Z,5
2017-09-07T05:38:25.745Z,5
2017-09-07T05:39:25.443Z,5
2017-09-07T05:40:25.742Z,5
2017-09-07T05:41:25.069Z,5
2017-09-07T05:42:25.509Z,5
2017-09-07T05:43:25.851Z,5
2017-09-07T05:44:25.507Z,5
2017-09-07T05:45:25.506Z,5
2017-09-07T05:46:25.506Z,5
2017-09-07T05:47:24.946Z,5
2017-09-07T05:48:25.629Z,5
2017-09-07T05:49:25.352Z,5
2017-09-07T05:50:25.350Z,5
2017-09-07T05:51:25.297Z,5
2017-09-07T05:52:25.653Z,5
2017-09-07T05:53:25.947Z,5
2017-09-07T05:54:25.656Z,10
2017-09-07T05:55:25.489Z,10
2017-09-07T05:56:25.364Z,5
2017-09-07T05:57:25.489Z,5
2017-09-07T05:58:25.726Z,10
2017-09-07T05:59:25.747Z,10
2017-09-07T06:00:26.089Z,10
2017-09-07T06:01:25.526Z,10
2017-09-07T06:02:26.463Z,10
2017-09-07T06:03:26.148Z,10
2017-09-07T06:04:26.163Z,10
2017-09-07T06:05:26.068Z,15
2017-09-07T06:06:25.635Z,10
2017-09-07T06:07:25.661Z,10
2017-09-07T06:08:25.662Z,10
2017-09-07T06:09:26.277Z,5
2017-09-07T06:10:25.667Z,10
2017-09-07T06:11:25.688Z,15
2017-09-07T06:12:26.004Z,10
2017-09-07T06:13:26.025Z,15
2017-09-07T06:14:26.365Z,10
2017-09-07T06:15:26.088Z,10
2017-09-07T06:16:25.769Z,10
2017-09-07T06:17:26.112Z,10
2017-09-07T06:18:26.459Z,10
2017-09-07T06:19:26.150Z,10
2017-09-07T06:20:25.519Z,5
2017-09-07T06:21:26.530Z,5
2017-09-07T06:22:25.886Z,10
2017-09-07T06:23:26.222Z,10
2017-09-07T06:24:25.921Z,10
2017-09-07T06:25:25.954Z,10
2017-09-07T06:26:26.281Z,5
2017-09-07T06:27:27.072Z,5
2017-09-07T06:28:26.762Z,5
2017-09-07T06:29:26.770Z,5
2017-09-07T06:30:26.122Z,5
2017-09-07T06:31:26.484Z,5
2017-09-07T06:32:25.865Z,5
2017-09-07T06:33:25.876Z,5
2017-09-07T06:34:26.980Z,5
2017-09-07T06:35:26.354Z,10
2017-09-07T06:36:26.757Z,10
2017-09-07T06:37:26.712Z,10
2017-09-07T06:38:27.037Z,10
2017-09-07T06:39:26.727Z,10
2017-09-07T06:40:26.705Z,15
2017-09-07T06:41:27.076Z,15
2017-09-07T06:42:26.408Z,15
2017-09-07T06:43:26.405Z,10
2017-09-07T06:44:26.822Z,10
2017-09-07T06:45:27.489Z,10
2017-09-07T06:46:26.761Z,5
2017-09-07T06:47:26.788Z,10
2017-09-07T06:48:26.838Z,10
2017-09-07T06:49:27.143Z,15
2017-09-07T06:50:26.785Z,15
2017-09-07T06:51:27.602Z,15
2017-09-07T06:52:27.129Z,15
2017-09-07T06:53:27.560Z,15
2017-09-07T06:54:26.557Z,15
2017-09-07T06:55:26.872Z,15
2017-09-07T06:56:26.880Z,10
2017-09-07T06:57:26.575Z,15
2017-09-07T06:58:27.329Z,20
2017-09-07T06:59:26.948Z,15
2017-09-07T07:00:27.704Z,15
2017-09-07T07:01:26.981Z,15
2017-09-07T07:02:26.676Z,20
2017-09-07T07:03:27.034Z,20
2017-09-07T07:04:26.737Z,15
2017-09-07T07:05:27.064Z,15
2017-09-07T07:06:26.772Z,20
2017-09-07T07:07:27.490Z,10
2017-09-07T07:08:26.805Z,10
2017-09-07T07:09:26.879Z,10
2017-09-07T07:10:27.812Z,15
2017-09-07T07:11:26.854Z,15
2017-09-07T07:12:27.874Z,15
2017-09-07T07:13:27.307Z,20
2017-09-07T07:14:27.631Z,15
2017-09-07T07:15:27.641Z,10
2017-09-07T07:16:27.608Z,10
2017-09-07T07:17:27.400Z,10
2017-09-07T07:18:27.420Z,15
2017-09-07T07:19:27.445Z,20
2017-09-07T07:20:27.770Z,20
2017-09-07T07:21:28.414Z,20
2017-09-07T07:22:27.864Z,15
2017-09-07T07:23:27.558Z,10
2017-09-07T07:24:28.320Z,10
2017-09-07T07:25:28.233Z,5
2017-09-07T07:26:28.548Z,5
2017-09-07T07:27:27.350Z,10
2017-09-07T07:28:27.198Z,10
2017-09-07T07:29:27.542Z,15
2017-09-07T07:30:27.559Z,20
2017-09-07T07:31:27.897Z,20
2017-09-07T07:32:27.602Z,15
2017-09-07T07:33:27.308Z,15
2017-09-07T07:34:27.652Z,10
2017-09-07T07:35:27.988Z,10
2017-09-07T07:36:27.671Z,15
2017-09-07T07:37:27.697Z,25
2017-09-07T07:38:28.043Z,25
2017-09-07T07:39:27.739Z,25
2017-09-07T07:40:27.443Z,25
2017-09-07T07:41:27.818Z,25
2017-09-07T07:42:27.838Z,20
2017-09-07T07:43:27.497Z,20
2017-09-07T07:44:27.851Z,20
2017-09-07T07:45:28.575Z,25
2017-09-07T07:46:27.556Z,30
2017-09-07T07:47:27.902Z,30
2017-09-07T07:48:28.579Z,30
2017-09-07T07:49:27.947Z,30
2017-09-07T07:50:27.958Z,25
2017-09-07T07:51:27.988Z,25
2017-09-07T07:52:28.008Z,25
2017-09-07T07:53:28.029Z,20
2017-09-07T07:54:27.397Z,25
2017-09-07T07:55:28.066Z,25
2017-09-07T07:56:28.425Z,20
2017-09-07T07:57:28.760Z,20
2017-09-07T07:58:28.494Z,20
2017-09-07T07:59:28.509Z,15
2017-09-07T08:00:28.166Z,10
2017-09-07T08:01:27.873Z,20
2017-09-07T08:02:28.961Z,25
2017-09-07T08:03:28.965Z,30
2017-09-07T08:04:28.977Z,35
2017-09-07T08:05:27.719Z,35
2017-09-07T08:06:28.621Z,35
2017-09-07T08:07:28.490Z,30
2017-09-07T08:08:29.249Z,30
2017-09-07T08:09:28.762Z,35
2017-09-07T08:10:28.864Z,30
2017-09-07T08:11:29.011Z,30
2017-09-07T08:12:28.289Z,35
2017-09-07T08:13:28.749Z,35
2017-09-07T08:14:28.766Z,35
2017-09-07T08:15:28.475Z,35
2017-09-07T08:16:28.164Z,35
2017-09-07T08:17:28.846Z,35
2017-09-07T08:18:27.886Z,35
2017-09-07T08:19:28.548Z,30
2017-09-07T08:20:28.888Z,35
2017-09-07T08:21:27.953Z,35
2017-09-07T08:22:28.617Z,30
2017-09-07T08:23:28.310Z,30
2017-09-07T08:24:28.989Z,30
2017-09-07T08:25:28.670Z,30
2017-09-07T08:26:28.698Z,25
2017-09-07T08:27:28.708Z,25
2017-09-07T08:28:29.379Z,30
2017-09-07T08:29:29.076Z,30
2017-09-07T08:30:29.093Z,25
2017-09-07T08:31:28.804Z,25
2017-09-07T08:32:28.491Z,30
2017-09-07T08:33:28.518Z,35
2017-09-07T08:34:29.185Z,35
2017-09-07T08:35:29.209Z,40
2017-09-07T08:36:28.897Z,40
2017-09-07T08:37:29.768Z,40
2017-09-07T08:38:28.632Z,40
2017-09-07T08:39:29.634Z,40
2017-09-07T08:40:28.984Z,35
2017-09-07T08:41:29.648Z,40
2017-09-07T08:42:28.699Z,40
2017-09-07T08:43:29.364Z,35
2017-09-07T08:44:29.712Z,40
2017-09-07T08:45:29.421Z,40
2017-09-07T08:46:29.109Z,40
2017-09-07T08:47:29.448Z,40
2017-09-07T08:48:29.475Z,35
2017-09-07T08:49:29.482Z,35
2017-09-07T08:50:29.506Z,35
2017-09-07T08:51:29.849Z,40
2017-09-07T08:52:29.231Z,40
2017-09-07T08:53:28.932Z,40
2017-09-07T08:54:29.585Z,35
2017-09-07T08:55:29.289Z,40
2017-09-07T08:56:29.640Z,30
2017-09-07T08:57:29.659Z,30
2017-09-07T08:58:29.681Z,20
2017-09-07T08:59:29.396Z,20
2017-09-07T09:00:29.411Z,25
2017-09-07T09:01:29.752Z,30
2017-09-07T09:02:28.797Z,25
2017-09-07T09:03:29.789Z,25
2017-09-07T09:04:30.132Z,30
2017-09-07T09:05:29.510Z,20
2017-09-07T09:06:29.523Z,15
2017-09-07T09:07:29.855Z,15
2017-09-07T09:08:30.222Z,15
2017-09-07T09:09:29.917Z,15
2017-09-07T09:10:29.288Z,20
2017-09-07T09:11:29.627Z,30
2017-09-07T09:12:29.987Z,30
2017-09-07T09:13:29.344Z,25
2017-09-07T09:14:29.686Z,30
2017-09-07T09:15:29.712Z,40
2017-09-07T09:16:29.737Z,35
2017-09-07T09:17:29.438Z,20
2017-09-07T09:18:30.106Z,25
2017-09-07T09:19:30.254Z,35
2017-09-07T09:20:30.352Z,35
2017-09-07T09:21:30.161Z,30
2017-09-07T09:22:30.498Z,35
2017-09-07T09:23:30.651Z,45
2017-09-07T09:24:30.589Z,40
2017-09-07T09:25:30.280Z,35
2017-09-07T09:26:30.306Z,40
2017-09-07T09:27:30.631Z,40
2017-09-07T09:28:30.308Z,45
2017-09-07T09:29:30.097Z,40
2017-09-07T09:30:30.758Z,45
2017-09-07T09:31:30.453Z,50
2017-09-07T09:32:30.130Z,30
2017-09-07T09:33:30.451Z,30
2017-09-07T09:34:30.472Z,25
2017-09-07T09:35:30.260Z,35
2017-09-07T09:36:29.943Z,40
2017-09-07T09:37:30.817Z,45
2017-09-07T09:38:30.518Z,50
2017-09-07T09:39:30.220Z,30
2017-09-07T09:40:30.571Z,35
2017-09-07T09:41:30.588Z,40
2017-09-07T09:42:30.667Z,40
2017-09-07T09:43:30.954Z,50
2017-09-07T09:44:30.650Z,55
2017-09-07T09:45:30.765Z,45
2017-09-07T09:46:31.224Z,40
2017-09-07T09:47:30.902Z,35
2017-09-07T09:48:30.468Z,40
2017-09-07T09:49:30.608Z,50
2017-09-07T09:50:30.769Z,60
2017-09-07T09:51:30.278Z,55
2017-09-07T09:52:31.235Z,50
2017-09-07T09:53:31.235Z,50
2017-09-07T09:54:30.954Z,50
2017-09-07T09:55:30.655Z,45
2017-09-07T09:56:31.086Z,45
2017-09-07T09:57:30.636Z,50
2017-09-07T09:58:31.306Z,50
2017-09-07T09:59:30.978Z,45
2017-09-07T10:00:30.883Z,45
2017-09-07T10:01:30.596Z,45
2017-09-07T10:02:30.392Z,30
2017-09-07T10:03:31.054Z,35
2017-09-07T10:04:31.091Z,35
2017-09-07T10:05:30.771Z,35
2017-09-07T10:06:31.122Z,45
2017-09-07T10:07:31.143Z,45
2017-09-07T10:08:31.166Z,60
2017-09-07T10:09:30.864Z,55
2017-09-07T10:10:30.929Z,60
2017-09-07T10:11:31.248Z,55
2017-09-07T10:12:30.923Z,50
2017-09-07T10:13:31.350Z,50
2017-09-07T10:14:31.382Z,50
2017-09-07T10:15:31.723Z,40
2017-09-07T10:16:31.416Z,45
2017-09-07T10:17:30.712Z,45
2017-09-07T10:18:31.307Z,40
2017-09-07T10:19:31.193Z,50
2017-09-07T10:20:31.533Z,65
2017-09-07T10:21:31.302Z,65
2017-09-07T10:22:31.457Z,65
2017-09-07T10:23:31.495Z,55
2017-09-07T10:24:31.194Z,50
2017-09-07T10:25:31.219Z,50
2017-09-07T10:26:32.090Z,50
2017-09-07T10:27:31.265Z,55
2017-09-07T10:28:30.959Z,55
2017-09-07T10:29:31.628Z,50
2017-09-07T10:30:31.647Z,50
2017-09-07T10:31:31.350Z,55
2017-09-07T10:32:31.686Z,60
2017-09-07T10:33:31.068Z,60
2017-09-07T10:34:31.725Z,60
2017-09-07T10:35:31.143Z,55
2017-09-07T10:36:31.449Z,55
2017-09-07T10:37:31.794Z,55
2017-09-07T10:38:32.193Z,50
2017-09-07T10:39:32.269Z,55
2017-09-07T10:40:31.542Z,55
2017-09-07T10:41:31.571Z,55
2017-09-07T10:42:31.592Z,60
2017-09-07T10:43:32.259Z,45
2017-09-07T10:44:31.971Z,40
2017-09-07T10:45:31.649Z,40
2017-09-07T10:46:31.771Z,50
2017-09-07T10:47:31.377Z,55
2017-09-07T10:48:31.721Z,55
2017-09-07T10:49:31.417Z,50
2017-09-07T10:50:31.771Z,55
2017-09-07T10:51:32.179Z,55
2017-09-07T10:52:32.469Z,55
2017-09-07T10:53:32.228Z,50
2017-09-07T10:54:32.504Z,50
2017-09-07T10:55:32.279Z,60
2017-09-07T10:56:32.222Z,60
2017-09-07T10:57:32.007Z,60
2017-09-07T10:58:32.343Z,60
2017-09-07T10:59:32.061Z,55
2017-09-07T11:00:32.645Z,55
2017-09-07T11:01:32.123Z,60
2017-09-07T11:02:32.362Z,60
2017-09-07T11:03:32.710Z,60
2017-09-07T11:04:32.427Z,45
2017-09-07T11:05:32.205Z,35
2017-09-07T11:06:32.225Z,30
2017-09-07T11:07:32.477Z,25
2017-09-07T11:08:32.492Z,25
2017-09-07T11:09:32.514Z,20
2017-09-07T11:10:32.538Z,25
2017-09-07T11:11:32.561Z,25
2017-09-07T11:12:32.348Z,20
2017-09-07T11:13:32.944Z,20
2017-09-07T11:14:32.632Z,20
2017-09-07T11:15:32.117Z,20
2017-09-07T11:16:32.686Z,20
2017-09-07T11:17:32.713Z,20
2017-09-07T11:18:32.727Z,20
2017-09-07T11:19:32.182Z,25
2017-09-07T11:20:32.128Z,30
2017-09-07T11:21:32.142Z,45
2017-09-07T11:22:32.180Z,60
2017-09-07T11:23:32.510Z,65
2017-09-07T11:24:32.862Z,65
2017-09-07T11:25:32.893Z,65
2017-09-07T11:26:32.925Z,65
2017-09-07T11:27:32.626Z,65
2017-09-07T11:28:32.950Z,60
2017-09-07T11:29:32.658Z,55
2017-09-07T11:30:33.014Z,55
2017-09-07T11:31:33.020Z,55
2017-09-07T11:32:33.054Z,55
2017-09-07T11:33:32.439Z,55
2017-09-07T11:34:33.092Z,50
2017-09-07T11:35:33.209Z,50
2017-09-07T11:36:32.818Z,50
2017-09-07T11:37:33.167Z,55
2017-09-07T11:38:33.185Z,55
2017-09-07T11:39:33.211Z,55
2017-09-07T11:40:32.590Z,55
2017-09-07T11:41:32.616Z,55
2017-09-07T11:42:33.281Z,50
2017-09-07T11:43:33.297Z,45
2017-09-07T11:44:33.002Z,40
2017-09-07T11:45:33.023Z,35
2017-09-07T11:46:32.733Z,30
2017-09-07T11:47:33.094Z,30
2017-09-07T11:48:32.782Z,30
2017-09-07T11:49:33.117Z,35
2017-09-07T11:50:33.696Z,40
2017-09-07T11:51:33.186Z,35
2017-09-07T11:52:33.193Z,25
2017-09-07T11:53:34.005Z,20
2017-09-07T11:54:33.418Z,25
2017-09-07T11:55:33.739Z,30
2017-09-07T11:56:32.962Z,30
2017-09-07T11:57:33.772Z,30
2017-09-07T11:58:33.772Z,30
2017-09-07T11:59:34.112Z,40
2017-09-07T12:00:33.149Z,45
2017-09-07T12:01:33.095Z,45
2017-09-07T12:02:33.108Z,35
2017-09-07T12:03:33.445Z,35
2017-09-07T12:04:33.481Z,35
2017-09-07T12:05:34.141Z,40
2017-09-07T12:06:33.200Z,40
2017-09-07T12:07:33.538Z,55
2017-09-07T12:08:34.212Z,55
2017-09-07T12:09:33.917Z,60
2017-09-07T12:10:34.259Z,65
2017-09-07T12:11:33.963Z,65
2017-09-07T12:12:33.660Z,65
2017-09-07T12:13:33.687Z,65
2017-09-07T12:14:34.052Z,65
2017-09-07T12:15:34.161Z,65
2017-09-07T12:16:34.117Z,65
2017-09-07T12:17:34.180Z,65
2017-09-07T12:18:33.490Z,60
2017-09-07T12:19:34.528Z,60
2017-09-07T12:20:34.211Z,60
2017-09-07T12:21:33.878Z,60
2017-09-07T12:22:34.251Z,60
2017-09-07T12:23:33.963Z,65
2017-09-07T12:24:34.276Z,55
2017-09-07T12:25:34.422Z,55
2017-09-07T12:26:34.101Z,60
2017-09-07T12:27:34.454Z,55
2017-09-07T12:28:34.467Z,55
2017-09-07T12:29:34.614Z,60
2017-09-07T12:30:34.184Z,60
2017-09-07T12:31:34.563Z,60
2017-09-07T12:32:34.159Z,60
2017-09-07T12:33:34.265Z,65
2017-09-07T12:34:34.605Z,60
2017-09-07T12:35:34.947Z,50
2017-09-07T12:36:34.237Z,40
2017-09-07T12:37:35.112Z,40
2017-09-07T12:38:34.083Z,40
2017-09-07T12:39:34.399Z,40
2017-09-07T12:40:34.448Z,45
2017-09-07T12:41:34.779Z,45
2017-09-07T12:42:34.075Z,45
2017-09-07T12:43:34.409Z,35
2017-09-07T12:44:34.758Z,30
2017-09-07T12:45:34.227Z,25
2017-09-07T12:46:34.484Z,25
2017-09-07T12:47:35.147Z,30
2017-09-07T12:48:34.531Z,25
2017-09-07T12:49:34.970Z,25
2017-09-07T12:50:34.258Z,35
2017-09-07T12:51:35.339Z,35
2017-09-07T12:52:34.312Z,35
2017-09-07T12:53:34.714Z,40
2017-09-07T12:54:35.490Z,40
2017-09-07T12:55:35.173Z,40
2017-09-07T12:56:34.729Z,40
2017-09-07T12:57:35.174Z,40
2017-09-07T12:58:35.114Z,40
2017-09-07T12:59:34.494Z,40
2017-09-07T13:00:35.239Z,40
2017-09-07T13:01:35.073Z,40
2017-09-07T13:02:34.550Z,40
2017-09-07T13:03:35.523Z,45
2017-09-07T13:04:35.273Z,40
2017-09-07T13:05:34.947Z,40
2017-09-07T13:06:35.456Z,45
2017-09-07T13:07:35.825Z,45
2017-09-07T13:08:35.916Z,40
2017-09-07T13:09:35.182Z,40
2017-09-07T13:10:35.496Z,45
2017-09-07T13:11:35.309Z,45
2017-09-07T13:12:35.317Z,45
2017-09-07T13:13:35.345Z,45
2017-09-07T13:14:35.317Z,45
2017-09-07T13:15:35.669Z,45
2017-09-07T13:16:36.027Z,45
2017-09-07T13:17:35.419Z,45
2017-09-07T13:18:35.797Z,45
2017-09-07T13:19:35.440Z,45
2017-09-07T13:20:35.399Z,45
2017-09-07T13:21:35.394Z,45
2017-09-07T13:22:35.065Z,45
2017-09-07T13:23:35.978Z,45
2017-09-07T13:24:36.062Z,40
2017-09-07T13:25:35.440Z,40
2017-09-07T13:26:35.794Z,40
2017-09-07T13:27:36.135Z,45
2017-09-07T13:28:36.157Z,45
2017-09-07T13:29:35.555Z,45
2017-09-07T13:30:35.242Z,45
2017-09-07T13:31:35.582Z,45
2017-09-07T13:32:35.725Z,45
2017-09-07T13:33:36.307Z,45
2017-09-07T13:34:35.989Z,40
2017-09-07T13:35:36.368Z,40
2017-09-07T13:36:36.352Z,40
2017-09-07T13:37:35.733Z,35
2017-09-07T13:38:35.755Z,25
2017-09-07T13:39:36.426Z,25
2017-09-07T13:40:36.454Z,25
2017-09-07T13:41:36.261Z,25
2017-09-07T13:42:36.429Z,25
2017-09-07T13:43:36.432Z,25
2017-09-07T13:44:36.113Z,25
2017-09-07T13:45:36.118Z,25
2017-09-07T13:46:35.986Z,25
2017-09-07T13:47:36.333Z,30
2017-09-07T13:48:35.681Z,30
2017-09-07T13:49:36.148Z,25
2017-09-07T13:50:36.058Z,25
2017-09-07T13:51:36.411Z,25
2017-09-07T13:52:36.099Z,30
2017-09-07T13:53:36.127Z,30
2017-09-07T13:54:35.824Z,30
2017-09-07T13:55:36.186Z,30
2017-09-07T13:56:36.723Z,35
2017-09-07T13:57:36.747Z,35
2017-09-07T13:58:36.564Z,35
2017-09-07T13:59:36.270Z,35
2017-09-07T14:00:36.297Z,30
2017-09-07T14:01:36.645Z,30
2017-09-07T14:02:36.668Z,30
2017-09-07T14:03:36.374Z,30
2017-09-07T14:04:36.725Z,30
2017-09-07T14:05:36.747Z,30
2017-09-07T14:06:36.440Z,30
2017-09-07T14:07:36.464Z,35
2017-09-07T14:08:36.847Z,40
2017-09-07T14:09:36.512Z,40
2017-09-07T14:10:36.860Z,40
2017-09-07T14:11:36.885Z,40
2017-09-07T14:12:36.586Z,40
2017-09-07T14:13:37.258Z,35
2017-09-07T14:14:36.963Z,35
2017-09-07T14:15:36.988Z,35
2017-09-07T14:16:36.370Z,40
2017-09-07T14:17:37.067Z,45
2017-09-07T14:18:37.076Z,50
2017-09-07T14:19:37.079Z,50
2017-09-07T14:20:37.107Z,65
2017-09-07T14:21:36.490Z,65
2017-09-07T14:22:37.156Z,60
2017-09-07T14:23:37.493Z,55
2017-09-07T14:24:37.522Z,40
2017-09-07T14:25:37.239Z,35
2017-09-07T14:26:36.609Z,25
2017-09-07T14:27:37.279Z,25
2017-09-07T14:28:37.303Z,25